createdAt,value
2023-05-11T00:01:16.440Z,11.88
2023-05-11T00:03:43.678Z,8.88
2023-05-11T00:06:10.658Z,9.07
2023-05-11T00:08:37.752Z,8.32
2023-05-11T00:11:07.872Z,8.73
2023-05-11T00:13:34.866Z,9.82
2023-05-11T00:16:01.742Z,11.63
2023-05-11T00:18:28.809Z,7.47
2023-05-11T00:20:56.691Z,8.80
2023-05-11T00:23:23.864Z,7.63
2023-05-11T00:25:50.772Z,7.40
2023-05-11T00:28:17.738Z,8.57
2023-05-11T00:30:45.383Z,9.75
2023-05-11T00:33:12.369Z,8.68
2023-05-11T00:35:39.104Z,8.68
2023-05-11T00:38:06.124Z,7.50
2023-05-11T00:40:32.962Z,8.80
2023-05-11T00:43:00.004Z,9.35
2023-05-11T00:45:26.864Z,8.55
2023-05-11T00:47:53.935Z,8.63
2023-05-11T00:50:20.823Z,7.38
2023-05-11T00:52:47.874Z,6.85
2023-05-11T00:55:14.681Z,8.35
2023-05-11T00:57:41.696Z,8.07
2023-05-11T01:00:09.043Z,8.73
2023-05-11T01:02:36.200Z,8.93
2023-05-11T01:05:03.179Z,9.82
2023-05-11T01:07:35.421Z,7.18
2023-05-11T01:10:30.089Z,7.63
2023-05-11T01:13:02.356Z,8.80
2023-05-11T01:15:51.540Z,9.10
2023-05-11T01:18:24.097Z,8.38
2023-05-11T01:20:53.392Z,7.40
2023-05-11T01:23:56.305Z,6.97
2023-05-11T01:26:44.461Z,8.40
2023-05-11T01:29:26.293Z,8.20
2023-05-11T01:31:54.778Z,8.77
2023-05-11T01:34:23.590Z,7.55
2023-05-11T01:36:58.872Z,7.10
2023-05-11T01:39:30.777Z,8.65
2023-05-11T01:41:57.473Z,7.90
2023-05-11T01:44:25.858Z,10.48
2023-05-11T01:46:52.590Z,7.88
2023-05-11T01:49:19.615Z,7.78
2023-05-11T01:51:46.302Z,7.75
2023-05-11T01:54:13.358Z,7.35
2023-05-11T01:56:40.885Z,8.65
2023-05-11T01:59:07.960Z,7.05
2023-05-11T02:01:35.767Z,7.65
2023-05-11T02:04:04.080Z,8.57
2023-05-11T02:06:31.061Z,8.27
2023-05-11T02:08:58.111Z,6.70
2023-05-11T02:11:25.018Z,8.18
2023-05-11T02:13:52.049Z,6.68
2023-05-11T02:16:19.018Z,7.18
2023-05-11T02:18:46.352Z,7.90
2023-05-11T02:21:13.485Z,10.85
2023-05-11T02:23:40.514Z,8.32
2023-05-11T02:26:07.187Z,7.30
2023-05-11T02:28:34.204Z,7.70
2023-05-11T02:31:03.447Z,6.43
2023-05-11T02:33:35.523Z,8.23
2023-05-11T02:36:02.324Z,7.38
2023-05-11T02:38:33.792Z,9.93
2023-05-11T02:41:09.348Z,6.72
2023-05-11T02:43:37.328Z,6.88
2023-05-11T02:46:08.896Z,6.80
2023-05-11T02:48:40.055Z,9.65
2023-05-11T02:51:07.803Z,7.78
2023-05-11T02:53:34.931Z,7.10
2023-05-11T02:56:01.774Z,7.60
2023-05-11T02:58:32.398Z,5.78
2023-05-11T03:00:59.243Z,8.20
2023-05-11T03:03:27.075Z,9.00
2023-05-11T03:05:53.892Z,6.03
2023-05-11T03:08:20.918Z,7.80
2023-05-11T03:10:47.618Z,8.85
2023-05-11T03:13:16.160Z,8.18
2023-05-11T03:15:42.902Z,7.47
2023-05-11T03:18:10.018Z,7.05
2023-05-11T03:20:37.335Z,7.25
2023-05-11T03:23:05.446Z,8.23
2023-05-11T03:25:32.178Z,8.07
2023-05-11T03:27:59.278Z,7.70
2023-05-11T03:30:26.217Z,6.18
2023-05-11T03:32:53.254Z,7.63
2023-05-11T03:35:20.620Z,8.13
2023-05-11T03:37:47.636Z,7.70
2023-05-11T03:40:14.939Z,8.13
2023-05-11T03:42:41.959Z,5.82
2023-05-11T03:45:09.055Z,7.90
2023-05-11T03:47:36.092Z,7.55
2023-05-11T03:50:03.098Z,6.90
2023-05-11T03:52:30.186Z,9.45
2023-05-11T03:54:56.921Z,8.35
2023-05-11T03:57:27.070Z,8.82
2023-05-11T03:59:53.785Z,7.97
2023-05-11T04:02:22.013Z,9.40
2023-05-11T04:04:48.967Z,8.57
2023-05-11T04:07:16.099Z,7.57
2023-05-11T04:09:42.802Z,10.05
2023-05-11T04:12:09.880Z,10.60
2023-05-11T04:14:36.569Z,8.90
2023-05-11T04:17:03.548Z,8.55
2023-05-11T04:19:30.373Z,8.20
2023-05-11T04:21:57.379Z,9.23
2023-05-11T04:24:24.145Z,7.65
2023-05-11T04:26:55.918Z,6.32
2023-05-11T04:29:22.601Z,10.35
2023-05-11T04:31:50.011Z,12.25
2023-05-11T04:34:16.784Z,10.20
2023-05-11T04:36:44.089Z,9.48
2023-05-11T04:39:10.758Z,10.57
2023-05-11T04:41:37.775Z,7.22
2023-05-11T04:44:04.991Z,10.18
2023-05-11T04:46:32.075Z,9.63
2023-05-11T04:48:58.826Z,9.80
2023-05-11T04:51:25.908Z,8.68
2023-05-11T04:53:52.752Z,10.00
2023-05-11T04:56:21.494Z,8.73
2023-05-11T04:58:48.299Z,8.32
2023-05-11T05:01:15.388Z,11.80
2023-05-11T05:03:42.258Z,11.32
2023-05-11T05:06:09.497Z,9.30
2023-05-11T05:08:36.189Z,10.10
2023-05-11T05:11:03.250Z,11.23
2023-05-11T05:13:29.964Z,9.75
2023-05-11T05:15:57.173Z,12.60
2023-05-11T05:18:23.895Z,8.93
2023-05-11T05:20:50.912Z,10.00
2023-05-11T05:23:17.612Z,11.93
2023-05-11T05:25:44.690Z,10.02
2023-05-11T05:28:11.485Z,8.93
2023-05-11T05:30:38.570Z,9.18
2023-05-11T05:33:05.459Z,9.30
2023-05-11T05:35:32.673Z,10.40
2023-05-11T05:37:59.393Z,10.65
2023-05-11T05:40:26.605Z,11.88
2023-05-11T05:42:53.342Z,8.32
2023-05-11T05:45:20.515Z,10.82
2023-05-11T05:47:49.108Z,8.57
2023-05-11T05:50:16.473Z,11.40
2023-05-11T05:52:43.287Z,7.20
2023-05-11T05:55:10.378Z,8.55
2023-05-11T05:57:37.174Z,9.35
2023-05-11T06:00:04.651Z,8.88
2023-05-11T06:02:31.511Z,9.75
2023-05-11T06:04:59.105Z,9.38
2023-05-11T06:07:27.444Z,8.98
2023-05-11T06:09:54.510Z,11.30
2023-05-11T06:12:21.279Z,9.05
2023-05-11T06:14:48.344Z,8.32
2023-05-11T06:17:15.148Z,6.95
2023-05-11T06:19:42.678Z,7.45
2023-05-11T06:22:09.457Z,8.40
2023-05-11T06:24:36.546Z,7.65
2023-05-11T06:27:03.422Z,7.80
2023-05-11T06:29:30.641Z,7.28
2023-05-11T06:31:58.035Z,8.68
2023-05-11T06:34:25.274Z,6.60
2023-05-11T06:36:52.122Z,7.57
2023-05-11T06:39:19.187Z,7.55
2023-05-11T06:41:46.124Z,8.75
2023-05-11T06:44:13.278Z,10.00
2023-05-11T06:46:40.120Z,8.50
2023-05-11T06:49:08.733Z,6.63
2023-05-11T06:51:35.587Z,7.97
2023-05-11T06:54:02.766Z,6.88
2023-05-11T06:56:29.730Z,7.30
2023-05-11T06:58:56.901Z,5.25
2023-05-11T07:01:23.701Z,6.68
2023-05-11T07:03:52.735Z,7.68
2023-05-11T07:06:21.691Z,6.28
2023-05-11T07:08:48.779Z,6.25
2023-05-11T07:11:15.836Z,8.30
2023-05-11T07:13:43.062Z,6.53
2023-05-11T07:16:09.907Z,7.80
2023-05-11T07:18:36.954Z,5.82
2023-05-11T07:21:03.819Z,5.65
2023-05-11T07:23:30.903Z,6.35
2023-05-11T07:25:58.252Z,6.88
2023-05-11T07:28:25.359Z,5.75
2023-05-11T07:30:52.232Z,5.90
2023-05-11T07:33:19.349Z,6.20
2023-05-11T07:35:46.219Z,6.10
2023-05-11T07:38:13.849Z,3.88
2023-05-11T07:40:40.650Z,5.95
2023-05-11T07:43:07.844Z,6.55
2023-05-11T07:45:34.742Z,8.00
2023-05-11T07:48:01.902Z,4.03
2023-05-11T07:50:28.820Z,5.43
2023-05-11T07:52:55.909Z,4.85
2023-05-11T07:55:25.091Z,5.63
2023-05-11T07:57:54.279Z,4.03
2023-05-11T08:00:21.924Z,4.22
2023-05-11T08:02:49.003Z,3.75
2023-05-11T08:05:17.501Z,5.50
2023-05-11T08:07:44.696Z,8.30
2023-05-11T08:10:12.073Z,3.00
2023-05-11T08:12:39.180Z,3.28
2023-05-11T08:15:06.298Z,6.25
2023-05-11T08:17:33.350Z,3.28
2023-05-11T08:20:00.121Z,3.03
2023-05-11T08:22:27.443Z,4.10
2023-05-11T08:24:54.221Z,2.97
2023-05-11T08:27:21.258Z,2.72
2023-05-11T08:29:47.975Z,4.70
2023-05-11T08:32:15.037Z,2.45
2023-05-11T08:34:41.792Z,2.58
2023-05-11T08:37:08.863Z,2.22
2023-05-11T08:39:46.719Z,3.13
2023-05-11T08:42:18.021Z,4.40
2023-05-11T08:44:44.808Z,2.60
2023-05-11T08:47:22.810Z,2.88
2023-05-11T08:49:52.548Z,2.58
2023-05-11T08:52:19.687Z,3.00
2023-05-11T08:54:47.147Z,2.28
2023-05-11T08:57:14.508Z,1.95
2023-05-11T08:59:42.160Z,2.42
2023-05-11T09:02:10.781Z,2.47
2023-05-11T09:04:37.547Z,2.58
2023-05-11T09:07:04.510Z,3.05
2023-05-11T09:09:31.237Z,3.45
2023-05-11T09:11:58.762Z,2.10
2023-05-11T09:14:27.677Z,2.72
2023-05-11T09:16:54.947Z,2.17
2023-05-11T09:19:22.017Z,2.08
2023-05-11T09:21:49.112Z,3.20
2023-05-11T09:24:15.867Z,1.95
2023-05-11T09:26:43.010Z,1.83
2023-05-11T09:29:09.729Z,3.33
2023-05-11T09:31:43.789Z,3.08
2023-05-11T09:34:14.561Z,2.50
2023-05-11T09:36:42.951Z,2.70
2023-05-11T09:39:15.298Z,2.50
2023-05-11T09:41:43.081Z,2.17
2023-05-11T09:44:10.657Z,1.55
2023-05-11T09:46:38.766Z,2.00
2023-05-11T09:49:06.279Z,1.90
2023-05-11T09:51:38.166Z,2.38
2023-05-11T09:54:19.058Z,2.53
2023-05-11T09:56:54.396Z,2.33
2023-05-11T09:59:41.486Z,3.25
2023-05-11T10:02:21.576Z,2.65
2023-05-11T10:04:49.677Z,2.08
2023-05-11T10:07:33.177Z,4.88
2023-05-11T10:10:01.734Z,2.17
2023-05-11T10:12:30.313Z,2.53
2023-05-11T10:15:07.071Z,2.13
2023-05-11T10:17:34.378Z,1.90
2023-05-11T10:20:01.820Z,2.20
2023-05-11T10:22:29.363Z,1.88
2023-05-11T10:24:59.523Z,2.20
2023-05-11T10:27:27.115Z,1.90
2023-05-11T10:29:54.157Z,2.10
2023-05-11T10:32:21.644Z,1.80
2023-05-11T10:34:48.558Z,2.58
2023-05-11T10:37:16.253Z,2.30
2023-05-11T10:39:44.103Z,2.33
2023-05-11T10:42:29.832Z,1.70
2023-05-11T10:48:03.989Z,2.22
2023-05-11T10:50:43.361Z,2.70
2023-05-11T10:53:38.121Z,1.63
2023-05-11T10:56:36.634Z,1.63
2023-05-11T10:59:09.724Z,3.80
2023-05-11T11:01:43.453Z,2.08
2023-05-11T11:04:14.356Z,3.27
2023-05-11T11:06:42.267Z,2.10
2023-05-11T11:09:13.126Z,3.10
2023-05-11T11:11:46.560Z,1.98
2023-05-11T11:14:14.856Z,3.50
2023-05-11T11:16:41.989Z,1.40
2023-05-11T11:19:30.973Z,1.98
2023-05-11T11:22:00.222Z,1.58
2023-05-11T11:24:42.898Z,1.40
2023-05-11T11:27:09.796Z,3.22
2023-05-11T11:29:37.543Z,1.45
2023-05-11T11:32:19.593Z,2.55
2023-05-11T11:34:47.194Z,1.73
2023-05-11T11:37:15.058Z,1.88
2023-05-11T11:39:42.074Z,1.73
2023-05-11T11:42:28.014Z,1.52
2023-05-11T11:44:55.578Z,1.30
2023-05-11T11:47:22.990Z,2.08
2023-05-11T11:49:51.498Z,1.92
2023-05-11T11:52:27.481Z,1.95
2023-05-11T11:54:55.905Z,1.58
2023-05-11T11:57:34.827Z,1.25
2023-05-11T12:00:06.939Z,1.52
2023-05-11T12:02:34.159Z,1.90
2023-05-11T12:05:22.536Z,1.58
2023-05-11T12:07:50.584Z,1.75
2023-05-11T12:10:18.392Z,2.10
2023-05-11T12:12:46.122Z,1.88
2023-05-11T12:15:29.755Z,2.88
2023-05-11T12:17:56.671Z,1.20
2023-05-11T12:20:24.048Z,2.50
2023-05-11T12:22:50.948Z,1.73
2023-05-11T12:25:19.436Z,1.15
2023-05-11T12:27:55.296Z,1.40
2023-05-11T12:30:23.907Z,1.67
2023-05-11T12:32:56.633Z,1.55
2023-05-11T12:35:33.876Z,1.50
2023-05-11T12:38:02.286Z,1.60
2023-05-11T12:40:29.470Z,1.67
2023-05-11T12:42:57.588Z,1.67
2023-05-11T12:45:25.447Z,2.13
2023-05-11T12:47:54.198Z,1.83
2023-05-11T12:50:21.542Z,2.03
2023-05-11T12:52:49.180Z,1.25
2023-05-11T12:55:29.252Z,1.85
2023-05-11T12:58:13.736Z,1.92
2023-05-11T13:00:54.348Z,2.03
2023-05-11T13:03:24.957Z,1.75
2023-05-11T13:05:52.386Z,2.42
2023-05-11T13:08:19.281Z,2.63
2023-05-11T13:10:48.221Z,2.78
2023-05-11T13:13:33.029Z,2.15
2023-05-11T13:16:00.622Z,1.60
2023-05-11T13:18:27.460Z,1.67
2023-05-11T13:21:07.637Z,3.20
2023-05-11T13:23:34.553Z,2.20
2023-05-11T13:26:01.596Z,2.53
2023-05-11T13:28:28.325Z,2.88
2023-05-11T13:31:00.208Z,2.65
2023-05-11T13:33:27.503Z,2.33
2023-05-11T13:35:54.541Z,2.15
2023-05-11T13:38:21.242Z,2.72
2023-05-11T13:40:48.521Z,1.83
2023-05-11T13:43:15.325Z,1.80
2023-05-11T13:45:42.395Z,2.25
2023-05-11T13:48:09.152Z,2.10
2023-05-11T13:50:36.251Z,2.45
2023-05-11T13:53:03.018Z,1.85
2023-05-11T13:55:30.692Z,2.00
2023-05-11T13:57:57.985Z,1.83
2023-05-11T14:00:25.318Z,2.30
2023-05-11T14:02:52.323Z,2.55
2023-05-11T14:05:19.777Z,2.95
2023-05-11T14:07:48.185Z,2.55
2023-05-11T14:10:16.749Z,3.45
2023-05-11T14:12:43.486Z,2.67
2023-05-11T14:15:11.297Z,2.65
2023-05-11T14:17:38.148Z,2.25
2023-05-11T14:20:06.654Z,3.67
2023-05-11T14:22:33.383Z,2.55
2023-05-11T14:25:01.896Z,2.47
2023-05-11T14:27:29.815Z,2.15
2023-05-11T14:29:56.937Z,1.85
2023-05-11T14:32:23.727Z,2.95
2023-05-11T14:34:50.842Z,1.77
2023-05-11T14:37:17.597Z,2.40
2023-05-11T14:39:44.989Z,4.70
2023-05-11T14:42:11.720Z,8.70
2023-05-11T14:44:38.813Z,10.55
2023-05-11T14:47:05.859Z,10.10
2023-05-11T14:49:32.945Z,9.70
2023-05-11T14:51:59.849Z,7.88
2023-05-11T14:54:26.931Z,7.57
2023-05-11T14:56:56.208Z,6.57
2023-05-11T14:59:24.427Z,9.52
2023-05-11T15:01:51.301Z,5.68
2023-05-11T15:04:18.762Z,6.40
2023-05-11T15:06:45.536Z,5.90
2023-05-11T15:09:12.560Z,6.32
2023-05-11T15:11:39.268Z,6.07
2023-05-11T15:14:07.114Z,5.97
2023-05-11T15:16:33.877Z,7.15
2023-05-11T15:19:01.085Z,7.25
2023-05-11T15:21:27.911Z,6.32
2023-05-11T15:23:55.211Z,7.05
2023-05-11T15:26:23.179Z,5.50
2023-05-11T15:28:50.354Z,5.15
2023-05-11T15:31:17.396Z,6.47
2023-05-11T15:33:45.059Z,5.55
2023-05-11T15:36:15.321Z,6.55
2023-05-11T15:38:42.777Z,5.88
2023-05-11T15:41:09.677Z,4.60
2023-05-11T15:43:36.696Z,5.15
2023-05-11T15:46:04.104Z,4.63
2023-05-11T15:48:31.352Z,5.53
2023-05-11T15:50:59.496Z,6.07
2023-05-11T15:53:26.896Z,5.10
2023-05-11T15:55:55.496Z,5.18
2023-05-11T15:58:23.089Z,4.18
2023-05-11T16:00:50.003Z,3.78
2023-05-11T16:03:17.471Z,4.13
2023-05-11T16:05:44.914Z,4.18
2023-05-11T16:08:12.533Z,4.32
2023-05-11T16:10:39.353Z,4.78
2023-05-11T16:13:06.410Z,3.25
2023-05-11T16:15:33.151Z,4.15
2023-05-11T16:18:03.088Z,5.78
2023-05-11T16:20:31.686Z,3.22
2023-05-11T16:22:58.690Z,3.30
2023-05-11T16:25:25.396Z,3.97
2023-05-11T16:27:52.409Z,3.08
2023-05-11T16:30:25.046Z,3.25
2023-05-11T16:32:53.258Z,3.00
2023-05-11T16:35:20.455Z,3.95
2023-05-11T16:37:48.021Z,3.30
2023-05-11T16:40:15.299Z,2.65
2023-05-11T16:42:42.499Z,3.40
2023-05-11T16:45:09.790Z,2.75
2023-05-11T16:47:36.932Z,2.85
2023-05-11T16:50:03.871Z,3.50
2023-05-11T16:52:30.951Z,3.72
2023-05-11T16:54:59.098Z,2.78
2023-05-11T16:57:26.809Z,2.22
2023-05-11T16:59:53.582Z,2.33
2023-05-11T17:02:21.258Z,3.15
2023-05-11T17:04:48.941Z,2.53
2023-05-11T17:07:16.208Z,3.03
2023-05-11T17:09:43.064Z,2.53
2023-05-11T17:12:12.998Z,3.92
2023-05-11T17:14:39.725Z,2.50
2023-05-11T17:17:08.132Z,2.28
2023-05-11T17:19:34.925Z,3.22
2023-05-11T17:22:02.250Z,2.55
2023-05-11T17:24:29.011Z,3.05
2023-05-11T17:26:56.154Z,5.78
2023-05-11T17:29:23.264Z,3.10
2023-05-11T17:31:51.821Z,4.18
2023-05-11T17:34:19.732Z,4.85
2023-05-11T17:36:47.960Z,2.42
2023-05-11T17:39:16.403Z,3.97
2023-05-11T17:41:43.553Z,2.78
2023-05-11T17:44:10.370Z,3.13
2023-05-11T17:46:37.448Z,3.40
2023-05-11T17:49:04.293Z,2.28
2023-05-11T17:51:31.324Z,2.88
2023-05-11T17:53:58.107Z,3.55
2023-05-11T17:56:25.208Z,3.45
2023-05-11T17:58:51.975Z,2.70
2023-05-11T18:01:19.758Z,4.43
2023-05-11T18:03:46.899Z,8.60
2023-05-11T18:06:14.703Z,7.70
2023-05-11T18:08:41.586Z,5.30
2023-05-11T18:11:10.920Z,14.35
2023-05-11T18:13:37.729Z,10.07
2023-05-11T18:16:05.135Z,4.68
2023-05-11T18:18:32.073Z,10.45
2023-05-11T18:21:04.955Z,6.28
2023-05-11T18:23:32.266Z,8.75
2023-05-11T18:25:59.484Z,3.28
2023-05-11T18:28:26.338Z,6.95
2023-05-11T18:30:54.226Z,10.93
2023-05-11T18:33:21.256Z,6.18
2023-05-11T18:35:48.455Z,5.68
2023-05-11T18:38:16.654Z,6.90
2023-05-11T18:40:44.867Z,6.13
2023-05-11T18:43:11.652Z,9.55
2023-05-11T18:45:40.915Z,3.97
2023-05-11T18:48:08.036Z,5.90
2023-05-11T18:50:35.854Z,4.35
2023-05-11T18:53:04.036Z,4.43
2023-05-11T18:55:38.162Z,3.65
2023-05-11T18:58:08.042Z,5.35
2023-05-11T19:00:37.508Z,4.38
2023-05-11T19:03:04.510Z,7.45
2023-05-11T19:05:31.701Z,4.53
2023-05-11T19:07:58.968Z,4.80
2023-05-11T19:10:26.112Z,3.85
2023-05-11T19:12:53.020Z,4.78
2023-05-11T19:15:20.053Z,3.97
2023-05-11T19:17:47.069Z,3.50
2023-05-11T19:20:14.869Z,3.97
2023-05-11T19:22:41.663Z,5.53
2023-05-11T19:25:09.461Z,4.57
2023-05-11T19:27:36.726Z,4.15
2023-05-11T19:30:04.703Z,3.53
2023-05-11T19:32:31.617Z,4.25
2023-05-11T19:34:59.807Z,5.22
2023-05-11T19:37:26.860Z,3.85
2023-05-11T19:39:55.044Z,4.18
2023-05-11T19:42:38.281Z,3.47
2023-05-11T19:45:13.677Z,4.78
2023-05-11T19:47:40.925Z,3.78
2023-05-11T19:50:09.620Z,2.97
2023-05-11T19:52:36.780Z,4.47
2023-05-11T19:55:04.752Z,5.32
2023-05-11T19:57:37.021Z,5.00
2023-05-11T20:00:09.837Z,4.63
2023-05-11T20:02:36.794Z,7.90
2023-05-11T20:05:04.628Z,4.07
2023-05-11T20:07:32.064Z,7.90
2023-05-11T20:09:59.196Z,6.75
2023-05-11T20:12:26.000Z,4.43
2023-05-11T20:14:53.263Z,6.50
2023-05-11T20:17:20.106Z,4.70
2023-05-11T20:19:47.249Z,4.18
2023-05-11T20:22:14.227Z,3.80
2023-05-11T20:24:42.058Z,4.88
2023-05-11T20:27:11.043Z,4.43
2023-05-11T20:29:40.348Z,4.80
2023-05-11T20:32:08.282Z,4.82
2023-05-11T20:34:35.691Z,4.18
2023-05-11T20:37:02.554Z,4.80
2023-05-11T20:39:29.756Z,3.22
2023-05-11T20:42:01.099Z,3.47
2023-05-11T20:44:28.259Z,4.60
2023-05-11T20:46:55.055Z,4.45
2023-05-11T20:49:37.616Z,4.32
2023-05-11T20:52:05.913Z,4.88
2023-05-11T20:54:35.003Z,7.63
2023-05-11T20:57:03.102Z,5.20
2023-05-11T21:02:02.998Z,5.38
2023-05-11T21:04:31.420Z,4.68
2023-05-11T21:06:58.411Z,4.82
2023-05-11T21:09:25.667Z,5.72
2023-05-11T21:11:52.576Z,4.18
2023-05-11T21:14:20.264Z,6.03
2023-05-11T21:16:47.786Z,5.50
2023-05-11T21:19:16.508Z,5.97
2023-05-11T21:21:43.423Z,4.28
2023-05-11T21:24:10.635Z,4.90
2023-05-11T21:26:37.683Z,4.47
2023-05-11T21:29:07.678Z,6.10
2023-05-11T21:31:34.507Z,6.55
2023-05-11T21:34:01.743Z,6.53
2023-05-11T21:36:28.677Z,4.40
2023-05-11T21:38:55.672Z,3.97
2023-05-11T21:41:22.578Z,5.15
2023-05-11T21:43:50.475Z,4.35
2023-05-11T21:46:17.212Z,5.40
2023-05-11T21:48:44.323Z,5.00
2023-05-11T21:51:11.451Z,4.13
2023-05-11T21:53:38.477Z,5.10
2023-05-11T21:56:05.346Z,6.15
2023-05-11T21:58:32.679Z,4.32
2023-05-11T22:00:59.422Z,4.72
2023-05-11T22:03:29.926Z,5.72
2023-05-11T22:05:57.128Z,4.00
2023-05-11T22:08:24.207Z,4.68
2023-05-11T22:10:50.928Z,5.90
2023-05-11T22:13:17.956Z,4.25
2023-05-11T22:15:44.687Z,5.72
2023-05-11T22:18:11.762Z,3.10
2023-05-11T22:20:38.461Z,3.97
2023-05-11T22:23:05.633Z,4.53
2023-05-11T22:25:32.452Z,4.50
2023-05-11T22:28:00.087Z,4.85
2023-05-11T22:30:26.834Z,4.22
2023-05-11T22:32:54.110Z,4.70
2023-05-11T22:35:21.308Z,4.38
2023-05-11T22:37:48.689Z,5.30
2023-05-11T22:40:15.453Z,4.45
2023-05-11T22:42:42.533Z,6.95
2023-05-11T22:45:09.804Z,4.32
2023-05-11T22:47:36.929Z,6.57
2023-05-11T22:50:03.954Z,4.80
2023-05-11T22:52:30.984Z,3.65
2023-05-11T22:54:59.006Z,5.22
2023-05-11T22:57:26.557Z,4.70
2023-05-11T22:59:53.258Z,4.68
2023-05-11T23:02:20.496Z,4.35
2023-05-11T23:04:51.958Z,5.38
2023-05-11T23:07:19.436Z,4.88
2023-05-11T23:09:46.370Z,5.07
2023-05-11T23:12:13.519Z,5.60
2023-05-11T23:14:40.288Z,6.18
2023-05-11T23:17:07.379Z,5.05
2023-05-11T23:19:34.263Z,6.60
2023-05-11T23:22:01.278Z,6.65
2023-05-11T23:24:29.010Z,4.82
2023-05-11T23:26:55.993Z,5.95
2023-05-11T23:29:22.947Z,6.60
2023-05-11T23:31:51.078Z,5.80
2023-05-11T23:34:18.388Z,5.97
2023-05-11T23:36:45.705Z,5.68
2023-05-11T23:39:12.418Z,5.68
2023-05-11T23:41:39.550Z,5.05
2023-05-11T23:44:06.283Z,5.78
2023-05-11T23:46:33.311Z,4.03
2023-05-11T23:49:00.025Z,4.80
2023-05-11T23:51:27.068Z,4.90
2023-05-11T23:53:53.820Z,6.25
2023-05-11T23:56:21.641Z,5.30
2023-05-11T23:58:50.408Z,4.40
